UATG/GUW METAR and TAF weather

Enter ICAO airport designator
Station Type Date Time Source
UATG METAR 2021/01/22 05:30 UTC NOAA

UATG 220530Z 22007MPS 5000 BR BKN033CB M09/M11 Q1028 R14/32//65 NOSIG RMK QFE773/1030


Station Type Date Time Source
UATG Decoded METAR 2021/01/22 05:30 UTC NOAA

Station name not available
Jan 22, 2021 - 12:30 AM EST / 2021.01.22 0530 UTC
Wind: from the SW (220 degrees) at 16 MPH (14 KT):0
Visibility: 3 mile(s):0
Sky conditions: mostly cloudy
Weather: mist; Cumulonimbus clouds observed
Temperature: 15 F (-9 C)
Windchill: 0 F (-18 C):1
Dew Point: 12 F (-11 C)
Relative Humidity: 85%
Pressure (altimeter): 30.36 in. Hg (1028 hPa)
ob: UATG 220530Z 22007MPS 5000 BR BKN033CB M09/M11 Q1028 R14/32//65 NOSIG RMK QFE773/1030
cycle: 5

Station Type Date Time Source
UATG TAF 2021/01/22 06:21 UTC NOAA

TAF UATG 220502Z 2206/2306 22010MPS 3100 -SHSN BR BKN011 BKN020CB TXM05/2211Z TNM08/2304Z
TEMPO 2207/2212 2000 SHSN BLSN BKN005 OVC020CB
BECMG 2213/2214 27005MPS

Example: see airport list